createdAt,value
2018-12-08T00:02:53.395Z,2.49
2018-12-08T00:08:48.391Z,3.18
2018-12-08T00:14:43.459Z,2.63
2018-12-08T00:20:38.419Z,3.86
2018-12-08T00:26:33.430Z,3.36
2018-12-08T00:32:28.442Z,2.83
2018-12-08T00:38:23.408Z,3.07
2018-12-08T00:44:18.421Z,2.97
2018-12-08T00:50:13.434Z,2.45
2018-12-08T00:56:08.428Z,2.47
2018-12-08T01:02:03.427Z,3.4
2018-12-08T01:07:58.479Z,3.26
2018-12-08T01:13:53.427Z,3.78
2018-12-08T01:19:48.460Z,2.93
2018-12-08T01:25:43.434Z,3.37
2018-12-08T01:31:38.470Z,3.33
2018-12-08T01:37:33.477Z,3.07
2018-12-08T01:43:28.466Z,3.04
2018-12-08T01:49:23.463Z,3.12
2018-12-08T01:55:18.460Z,2.71
2018-12-08T02:01:13.478Z,3.25
2018-12-08T02:07:08.467Z,2.85
2018-12-08T02:13:03.464Z,2.93
2018-12-08T02:18:58.524Z,1.67
2018-12-08T02:24:53.486Z,2.53
2018-12-08T02:30:48.490Z,1.66
2018-12-08T02:36:43.508Z,1.33
2018-12-08T02:42:38.500Z,2.39
2018-12-08T02:48:33.504Z,2.42
2018-12-08T02:54:28.489Z,2.51
2018-12-08T03:00:23.508Z,2
2018-12-08T03:06:18.519Z,2.69
2018-12-08T03:12:13.509Z,2.98
2018-12-08T03:18:08.502Z,2.4
2018-12-08T03:24:03.495Z,2.64
2018-12-08T03:29:58.506Z,2.88
2018-12-08T03:35:53.516Z,2.2
2018-12-08T03:41:48.528Z,2.75
2018-12-08T03:47:43.530Z,2.77
2018-12-08T03:53:38.592Z,2.7
2018-12-08T03:59:33.543Z,2.73
2018-12-08T04:05:28.541Z,3.2
2018-12-08T04:11:23.538Z,3.05
2018-12-08T04:17:18.570Z,2.84
2018-12-08T04:23:13.584Z,2.93
2018-12-08T04:29:08.543Z,2.75
2018-12-08T04:35:03.553Z,2.73
2018-12-08T04:40:58.559Z,4.03
2018-12-08T04:46:53.576Z,3.67
2018-12-08T04:52:48.565Z,2.63
2018-12-08T04:58:43.561Z,3.17
2018-12-08T05:04:38.560Z,3.81
2018-12-08T05:10:33.593Z,3.95
2018-12-08T05:16:28.575Z,4.18
2018-12-08T05:22:23.565Z,2.9
2018-12-08T05:28:18.565Z,2.73
2018-12-08T05:34:13.593Z,2.53
2018-12-08T05:40:08.601Z,2.36
2018-12-08T05:46:03.579Z,1.83
2018-12-08T05:51:58.606Z,2.4
2018-12-08T05:57:53.611Z,2.39
2018-12-08T06:03:48.609Z,2.47
2018-12-08T06:09:43.595Z,2.68
2018-12-08T06:15:38.636Z,1.9
2018-12-08T06:21:33.622Z,1.71
2018-12-08T06:27:28.633Z,2.75
2018-12-08T06:33:23.634Z,1.65
2018-12-08T06:39:18.623Z,1.76
2018-12-08T06:45:13.692Z,1.82
2018-12-08T06:51:08.635Z,2.49
2018-12-08T06:57:03.640Z,2.88
2018-12-08T07:02:58.705Z,2.56
2018-12-08T07:08:53.625Z,2.61
2018-12-08T07:14:48.648Z,4.15
2018-12-08T07:20:43.692Z,2.61
2018-12-08T07:26:38.717Z,2.35
2018-12-08T07:32:38.770Z,2.76
2018-12-08T07:38:28.653Z,2.56
2018-12-08T07:44:23.674Z,2
2018-12-08T07:50:18.719Z,2.05
2018-12-08T07:56:13.662Z,1.75
2018-12-08T08:02:08.685Z,1.43
2018-12-08T08:08:03.663Z,1.91
2018-12-08T08:13:58.727Z,1.81
2018-12-08T08:19:53.684Z,1.45
2018-12-08T08:25:48.715Z,1.45
2018-12-08T08:31:43.919Z,1.33
2018-12-08T08:37:38.694Z,1.21
2018-12-08T08:43:33.704Z,1.18
2018-12-08T08:49:28.722Z,1.18
2018-12-08T08:55:23.739Z,1.4
2018-12-08T09:01:18.715Z,1.22
2018-12-08T09:07:13.728Z,1.05
2018-12-08T09:13:08.729Z,1.1
2018-12-08T09:19:03.710Z,0.96
2018-12-08T09:24:58.726Z,1.14
2018-12-08T09:30:53.709Z,1.38
2018-12-08T09:36:48.783Z,1.04
2018-12-08T09:42:43.748Z,0.98
2018-12-08T09:48:38.760Z,1.04
2018-12-08T09:54:33.778Z,0.94
2018-12-08T10:00:28.767Z,0.73
2018-12-08T10:06:23.750Z,0.92
2018-12-08T10:12:18.753Z,0.63
2018-12-08T10:18:13.791Z,0.77
2018-12-08T10:24:08.778Z,0.71
2018-12-08T10:30:03.769Z,0.69
2018-12-08T10:35:58.778Z,0.65
2018-12-08T10:41:53.800Z,0.98
2018-12-08T10:47:48.809Z,0.77
2018-12-08T10:53:43.776Z,0.76
2018-12-08T10:59:38.803Z,0.7
2018-12-08T11:05:33.798Z,1.14
2018-12-08T11:11:28.830Z,0.92
2018-12-08T11:17:23.793Z,0.93
2018-12-08T11:23:18.810Z,3.57
2018-12-08T11:29:13.812Z,0.76
2018-12-08T11:35:08.854Z,1.19
2018-12-08T11:41:03.803Z,1.16
2018-12-08T11:46:58.838Z,0.83
2018-12-08T11:52:53.807Z,1.25
2018-12-08T11:58:48.836Z,0.8
2018-12-08T12:04:43.813Z,0.77
2018-12-08T12:10:38.818Z,1.01
2018-12-08T12:16:33.843Z,0.66
2018-12-08T12:22:28.834Z,0.91
2018-12-08T12:28:23.829Z,0.6
2018-12-08T12:34:18.874Z,0.75
2018-12-08T12:40:13.844Z,1
2018-12-08T12:46:08.897Z,0.96
2018-12-08T12:52:03.865Z,0.82
2018-12-08T12:57:58.881Z,0.57
2018-12-08T13:03:53.861Z,0.92
2018-12-08T13:09:48.890Z,0.69
2018-12-08T13:15:43.883Z,0.63
2018-12-08T13:21:38.858Z,0.83
2018-12-08T13:27:33.860Z,0.71
2018-12-08T13:33:28.877Z,0.9
2018-12-08T13:39:23.889Z,1.01
2018-12-08T13:45:18.863Z,0.93
2018-12-08T13:51:13.931Z,0.82
2018-12-08T13:57:08.889Z,0.81
2018-12-08T14:03:03.890Z,0.93
2018-12-08T14:08:58.923Z,1.34
2018-12-08T14:14:53.923Z,1.19
2018-12-08T14:20:48.923Z,0.87
2018-12-08T14:26:43.902Z,1.25
2018-12-08T14:32:38.899Z,1
2018-12-08T14:38:33.921Z,0.99
2018-12-08T14:44:28.896Z,2.9
2018-12-08T14:50:23.906Z,5.7
2018-12-08T14:56:18.922Z,2.07
2018-12-08T15:02:13.933Z,43.38
2018-12-08T15:08:08.929Z,40.08
2018-12-08T15:14:03.944Z,34.16
2018-12-08T15:19:58.968Z,5.11
2018-12-08T15:25:53.985Z,4.17
2018-12-08T15:31:48.968Z,1.78
2018-12-08T15:37:43.957Z,1.53
2018-12-08T15:43:38.987Z,1.86
2018-12-08T15:49:33.946Z,1.91
2018-12-08T15:55:28.965Z,1.72
2018-12-08T16:01:23.959Z,1.72
2018-12-08T16:07:19.000Z,2.03
2018-12-08T16:13:13.964Z,2.21
2018-12-08T16:19:08.977Z,2.5
2018-12-08T16:25:04.093Z,2.6
2018-12-08T16:30:59.006Z,3.25
2018-12-08T16:36:53.992Z,3.76
2018-12-08T16:42:48.974Z,3.52
2018-12-08T16:48:43.998Z,3.48
2018-12-08T16:54:39.013Z,5.36
2018-12-08T17:00:34.015Z,5.15
2018-12-08T17:06:29.015Z,5.39
2018-12-08T17:12:24.003Z,4.75
2018-12-08T17:18:19.024Z,4.59
2018-12-08T17:24:14.025Z,5.24
2018-12-08T17:30:09.007Z,6.52
2018-12-08T17:36:04.004Z,5.74
2018-12-08T17:41:59.030Z,11.9
2018-12-08T17:47:54.099Z,8.36
2018-12-08T17:53:49.043Z,9.06
2018-12-08T17:59:44.031Z,9.34
2018-12-08T18:05:39.036Z,8.29
2018-12-08T18:11:34.051Z,7.7
2018-12-08T18:17:29.049Z,9.06
2018-12-08T18:23:24.083Z,8.85
2018-12-08T18:29:19.121Z,10.31
2018-12-08T18:35:14.055Z,7.7
2018-12-08T18:41:09.051Z,7.93
2018-12-08T18:47:04.043Z,10.35
2018-12-08T18:52:59.057Z,11.59
2018-12-08T18:58:54.064Z,13.63
2018-12-08T19:04:49.068Z,16.75
2018-12-08T19:10:44.074Z,17.25
2018-12-08T19:16:39.073Z,11.32
2018-12-08T19:22:34.081Z,13.62
2018-12-08T19:28:29.132Z,11.52
2018-12-08T19:34:24.084Z,12.4
2018-12-08T19:40:19.102Z,11.97
2018-12-08T19:46:14.103Z,14.23
2018-12-08T19:52:09.118Z,10.62
2018-12-08T19:58:04.140Z,11.62
2018-12-08T20:03:59.109Z,10.11
2018-12-08T20:09:54.130Z,10.03
2018-12-08T20:15:49.114Z,10.75
2018-12-08T20:21:44.110Z,11
2018-12-08T20:27:39.139Z,11.34
2018-12-08T20:33:34.142Z,10.93
2018-12-08T20:39:29.168Z,12.68
2018-12-08T20:45:24.129Z,11.89
2018-12-08T20:51:19.133Z,12.84
2018-12-08T20:57:14.130Z,13.1
2018-12-08T21:03:09.166Z,12.92
2018-12-08T21:09:04.165Z,12.52
2018-12-08T21:14:59.197Z,11.92
2018-12-08T21:20:54.150Z,12.43
2018-12-08T21:26:49.155Z,11.22
2018-12-08T21:32:44.164Z,11.98
2018-12-08T21:38:39.168Z,13.6
2018-12-08T21:44:34.159Z,12.38
2018-12-08T21:50:29.299Z,11.97
2018-12-08T21:56:24.167Z,12.75
2018-12-08T22:02:19.240Z,12.34
2018-12-08T22:08:14.178Z,12.99
2018-12-08T22:14:09.176Z,10.9
2018-12-08T22:20:04.195Z,12
2018-12-08T22:25:59.202Z,10.84
2018-12-08T22:31:54.181Z,11.1
2018-12-08T22:37:49.196Z,10.25
2018-12-08T22:43:44.188Z,11.08
2018-12-08T22:49:39.189Z,10.81
2018-12-08T22:55:34.257Z,10.07
2018-12-08T23:01:29.197Z,10.48
2018-12-08T23:07:24.210Z,10.17
2018-12-08T23:13:19.230Z,9.87
2018-12-08T23:19:14.202Z,8.28
2018-12-08T23:25:09.223Z,8.67
2018-12-08T23:31:04.218Z,9.12
2018-12-08T23:36:59.218Z,10
2018-12-08T23:42:54.284Z,10.64
2018-12-08T23:48:49.240Z,9.49
2018-12-08T23:54:44.264Z,9.48
